createdAt,value
2023-03-02T00:01:27.660Z,14.35
2023-03-02T00:03:58.860Z,21.33
2023-03-02T00:06:27.193Z,15.80
2023-03-02T00:08:55.129Z,19.75
2023-03-02T00:11:23.349Z,17.20
2023-03-02T00:13:51.293Z,15.70
2023-03-02T00:16:19.394Z,16.63
2023-03-02T00:18:48.883Z,15.95
2023-03-02T00:21:17.101Z,14.45
2023-03-02T00:23:45.068Z,13.57
2023-03-02T00:26:13.138Z,15.50
2023-03-02T00:28:41.794Z,14.77
2023-03-02T00:31:10.135Z,18.40
2023-03-02T00:33:41.124Z,16.00
2023-03-02T00:36:17.934Z,17.15
2023-03-02T00:38:46.118Z,15.55
2023-03-02T00:41:14.919Z,14.05
2023-03-02T00:43:43.186Z,15.32
2023-03-02T00:46:12.437Z,17.30
2023-03-02T00:48:40.713Z,16.77
2023-03-02T00:51:09.228Z,15.07
2023-03-02T00:53:39.130Z,14.18
2023-03-02T00:56:08.339Z,16.00
2023-03-02T00:58:40.564Z,12.77
2023-03-02T01:01:12.668Z,15.23
2023-03-02T01:03:45.493Z,15.48
2023-03-02T01:06:19.930Z,15.10
2023-03-02T01:08:49.640Z,16.08
2023-03-02T01:11:20.349Z,19.63
2023-03-02T01:13:48.773Z,16.60
2023-03-02T01:16:17.241Z,16.55
2023-03-02T01:18:45.242Z,18.70
2023-03-02T01:21:16.286Z,15.05
2023-03-02T01:23:44.396Z,14.65
2023-03-02T01:26:14.289Z,23.98
2023-03-02T01:28:42.280Z,18.40
2023-03-02T01:31:10.353Z,16.83
2023-03-02T01:33:38.329Z,14.98
2023-03-02T01:36:07.176Z,15.70
2023-03-02T01:38:35.316Z,15.38
2023-03-02T01:41:03.466Z,15.35
2023-03-02T01:43:32.919Z,15.55
2023-03-02T01:46:03.718Z,17.98
2023-03-02T01:48:47.447Z,16.17
2023-03-02T01:51:22.053Z,14.07
2023-03-02T01:53:53.629Z,19.98
2023-03-02T01:56:27.115Z,14.98
2023-03-02T01:59:02.397Z,16.15
2023-03-02T02:01:32.881Z,15.63
2023-03-02T02:04:01.653Z,16.80
2023-03-02T02:06:35.760Z,15.80
2023-03-02T02:09:05.744Z,16.30
2023-03-02T02:11:33.716Z,18.80
2023-03-02T02:14:04.768Z,15.02
2023-03-02T02:16:34.994Z,15.13
2023-03-02T02:19:04.947Z,15.07
2023-03-02T02:21:33.061Z,16.77
2023-03-02T02:24:09.404Z,14.88
2023-03-02T02:26:44.389Z,18.40
2023-03-02T02:29:15.290Z,14.98
2023-03-02T02:31:47.880Z,15.60
2023-03-02T02:34:22.378Z,16.05
2023-03-02T02:36:55.814Z,16.52
2023-03-02T02:39:29.012Z,21.08
2023-03-02T02:42:02.767Z,14.15
2023-03-02T02:44:32.117Z,15.10
2023-03-02T02:47:01.229Z,14.52
2023-03-02T02:49:33.341Z,14.10
2023-03-02T02:52:02.136Z,15.52
2023-03-02T02:54:32.512Z,15.30
2023-03-02T02:57:04.547Z,15.75
2023-03-02T02:59:37.467Z,15.45
2023-03-02T03:02:05.842Z,14.88
2023-03-02T03:04:34.544Z,15.52
2023-03-02T03:07:04.765Z,16.58
2023-03-02T03:09:33.623Z,16.55
2023-03-02T03:12:09.491Z,17.02
2023-03-02T03:14:40.196Z,16.27
2023-03-02T03:17:13.240Z,13.77
2023-03-02T03:19:53.507Z,18.02
2023-03-02T03:22:21.620Z,16.08
2023-03-02T03:24:51.327Z,20.38
2023-03-02T03:27:21.561Z,15.93
2023-03-02T03:29:49.669Z,15.63
2023-03-02T03:32:20.186Z,17.30
2023-03-02T03:34:50.589Z,15.85
2023-03-02T03:37:26.863Z,13.70
2023-03-02T03:39:54.902Z,17.85
2023-03-02T03:42:25.044Z,16.80
2023-03-02T03:44:54.986Z,17.85
2023-03-02T03:47:23.545Z,16.63
2023-03-02T03:49:52.450Z,17.42
2023-03-02T03:52:30.524Z,15.95
2023-03-02T03:55:05.853Z,16.48
2023-03-02T03:57:35.423Z,14.75
2023-03-02T04:00:05.981Z,20.58
2023-03-02T04:02:42.492Z,16.67
2023-03-02T04:05:11.973Z,14.45
2023-03-02T04:07:41.105Z,15.27
2023-03-02T04:10:11.421Z,15.77
2023-03-02T04:12:43.694Z,14.98
2023-03-02T04:15:16.021Z,17.88
2023-03-02T04:17:45.936Z,18.23
2023-03-02T04:20:17.334Z,15.35
2023-03-02T04:22:50.616Z,15.82
2023-03-02T04:25:23.509Z,15.68
2023-03-02T04:27:56.341Z,16.05
2023-03-02T04:30:28.474Z,16.05
2023-03-02T04:32:57.408Z,13.93
2023-03-02T04:35:26.981Z,16.08
2023-03-02T04:37:55.102Z,13.95
2023-03-02T04:40:23.477Z,13.90
2023-03-02T04:42:51.527Z,14.88
2023-03-02T04:45:21.113Z,14.43
2023-03-02T04:47:49.003Z,14.93
2023-03-02T04:50:17.034Z,16.25
2023-03-02T04:52:45.018Z,15.68
2023-03-02T04:55:19.999Z,14.52
2023-03-02T04:57:48.201Z,18.13
2023-03-02T05:00:17.576Z,18.65
2023-03-02T05:02:47.635Z,16.33
2023-03-02T05:05:18.134Z,20.02
2023-03-02T05:07:49.328Z,18.42
2023-03-02T05:10:18.680Z,15.43
2023-03-02T05:12:58.070Z,14.27
2023-03-02T05:15:28.441Z,15.05
2023-03-02T05:17:58.757Z,13.77
2023-03-02T05:20:30.167Z,16.35
2023-03-02T05:22:59.645Z,15.57
2023-03-02T05:25:29.451Z,15.73
2023-03-02T05:27:57.725Z,16.15
2023-03-02T05:30:26.323Z,20.42
2023-03-02T05:32:54.678Z,15.23
2023-03-02T05:35:24.283Z,15.45
2023-03-02T05:37:52.586Z,16.13
2023-03-02T05:40:21.803Z,16.42
2023-03-02T05:42:50.727Z,16.50
2023-03-02T05:45:23.021Z,16.05
2023-03-02T05:47:51.102Z,18.38
2023-03-02T05:50:19.326Z,15.73
2023-03-02T05:52:48.843Z,19.90
2023-03-02T05:55:18.641Z,13.68
2023-03-02T05:57:49.137Z,12.93
2023-03-02T06:00:18.670Z,15.65
2023-03-02T06:02:46.915Z,16.23
2023-03-02T06:05:16.648Z,14.43
2023-03-02T06:07:45.373Z,15.07
2023-03-02T06:10:15.555Z,15.60
2023-03-02T06:12:43.794Z,13.10
2023-03-02T06:15:11.967Z,16.92
2023-03-02T06:17:39.950Z,13.48
2023-03-02T06:20:11.068Z,15.43
2023-03-02T06:22:41.272Z,14.60
2023-03-02T06:25:10.573Z,17.27
2023-03-02T06:27:41.143Z,14.57
2023-03-02T06:30:12.511Z,17.45
2023-03-02T06:32:40.665Z,14.32
2023-03-02T06:35:09.976Z,20.85
2023-03-02T06:37:38.000Z,17.30
2023-03-02T06:40:10.222Z,16.10
2023-03-02T06:42:41.110Z,16.50
2023-03-02T06:45:10.830Z,18.17
2023-03-02T06:47:39.019Z,18.02
2023-03-02T06:50:08.365Z,21.20
2023-03-02T06:52:36.522Z,19.70
2023-03-02T06:55:05.044Z,13.23
2023-03-02T06:57:34.570Z,17.23
2023-03-02T07:00:09.670Z,22.90
2023-03-02T07:02:38.302Z,18.25
2023-03-02T07:05:07.628Z,15.98
2023-03-02T07:07:36.019Z,17.48
2023-03-02T07:10:04.033Z,15.02
2023-03-02T07:12:35.356Z,14.02
2023-03-02T07:15:05.509Z,16.33
2023-03-02T07:17:35.210Z,17.85
2023-03-02T07:20:04.089Z,18.92
2023-03-02T07:22:32.135Z,17.65
2023-03-02T07:25:00.065Z,15.75
2023-03-02T07:27:28.142Z,15.75
2023-03-02T07:29:56.116Z,15.20
2023-03-02T07:32:25.580Z,17.92
2023-03-02T07:34:53.773Z,15.82
2023-03-02T07:37:21.750Z,16.55
2023-03-02T07:39:50.365Z,14.38
2023-03-02T07:42:18.915Z,15.85
2023-03-02T07:44:53.803Z,17.17
2023-03-02T07:47:21.840Z,14.13
2023-03-02T07:49:51.505Z,15.85
2023-03-02T07:52:19.504Z,14.13
2023-03-02T07:54:47.530Z,19.65
2023-03-02T07:57:16.362Z,18.90
2023-03-02T07:59:44.863Z,15.70
2023-03-02T08:02:15.274Z,24.10
2023-03-02T08:04:43.775Z,15.30
2023-03-02T08:07:13.224Z,16.55
2023-03-02T08:09:41.534Z,15.77
2023-03-02T08:12:09.605Z,15.45
2023-03-02T08:14:38.240Z,19.90
2023-03-02T08:17:07.417Z,14.32
2023-03-02T08:19:35.445Z,14.32
2023-03-02T08:22:03.834Z,16.05
2023-03-02T08:24:33.267Z,14.70
2023-03-02T08:27:02.067Z,14.68
2023-03-02T08:29:30.457Z,14.18
2023-03-02T08:31:59.669Z,14.77
2023-03-02T08:34:27.782Z,16.48
2023-03-02T08:36:55.789Z,17.27
2023-03-02T08:39:23.934Z,15.32
2023-03-02T08:41:53.579Z,19.77
2023-03-02T08:44:22.305Z,17.17
2023-03-02T08:46:50.920Z,17.45
2023-03-02T08:49:19.980Z,17.38
2023-03-02T08:51:53.318Z,15.63
2023-03-02T08:54:21.965Z,19.38
2023-03-02T08:56:50.331Z,17.52
2023-03-02T08:59:21.011Z,15.35
2023-03-02T09:01:49.112Z,19.10
2023-03-02T09:04:17.315Z,16.67
2023-03-02T09:06:46.493Z,15.95
2023-03-02T09:09:15.692Z,21.40
2023-03-02T09:11:44.759Z,17.55
2023-03-02T09:14:13.225Z,19.35
2023-03-02T09:16:42.594Z,16.35
2023-03-02T09:19:12.704Z,15.50
2023-03-02T09:21:40.831Z,17.27
2023-03-02T09:24:09.322Z,23.23
2023-03-02T09:26:38.259Z,18.58
2023-03-02T09:29:07.132Z,15.50
2023-03-02T09:31:35.699Z,12.20
2023-03-02T09:34:05.610Z,14.88
2023-03-02T09:36:34.486Z,15.20
2023-03-02T09:39:08.475Z,15.38
2023-03-02T09:42:19.652Z,17.25
2023-03-02T09:45:16.635Z,26.55
2023-03-02T09:47:53.034Z,18.67
2023-03-02T09:50:32.381Z,15.73
2023-03-02T09:53:18.253Z,21.25
2023-03-02T09:55:48.019Z,13.57
2023-03-02T09:58:18.876Z,14.85
2023-03-02T10:00:47.466Z,15.55
2023-03-02T10:03:19.106Z,16.27
2023-03-02T10:05:51.924Z,15.77
2023-03-02T10:08:23.109Z,15.68
2023-03-02T10:10:59.038Z,16.63
2023-03-02T10:13:32.768Z,15.55
2023-03-02T10:16:13.251Z,15.45
2023-03-02T10:18:45.138Z,14.40
2023-03-02T10:21:23.240Z,15.00
2023-03-02T10:23:57.354Z,15.30
2023-03-02T10:26:38.469Z,10.35
2023-03-02T10:29:24.845Z,16.25
2023-03-02T10:31:59.158Z,13.57
2023-03-02T10:34:30.919Z,13.07
2023-03-02T10:37:00.322Z,16.63
2023-03-02T10:39:28.288Z,14.95
2023-03-02T10:42:01.673Z,14.77
2023-03-02T10:44:32.997Z,17.17
2023-03-02T10:47:01.243Z,17.23
2023-03-02T10:49:31.037Z,13.93
2023-03-02T10:52:02.579Z,14.07
2023-03-02T10:54:31.777Z,15.93
2023-03-02T10:57:02.223Z,18.30
2023-03-02T10:59:44.684Z,15.82
2023-03-02T11:02:16.928Z,15.60
2023-03-02T11:04:45.779Z,16.23
2023-03-02T11:07:18.866Z,13.60
2023-03-02T11:10:01.876Z,14.23
2023-03-02T11:12:31.670Z,17.15
2023-03-02T11:15:18.573Z,13.55
2023-03-02T11:17:49.783Z,13.15
2023-03-02T11:20:24.594Z,14.50
2023-03-02T11:23:03.740Z,14.70
2023-03-02T11:25:36.704Z,12.38
2023-03-02T11:28:11.580Z,11.90
2023-03-02T11:30:48.027Z,13.27
2023-03-02T11:33:22.836Z,13.65
2023-03-02T11:35:55.609Z,12.32
2023-03-02T11:38:28.104Z,11.63
2023-03-02T11:40:59.642Z,15.05
2023-03-02T11:43:29.752Z,13.30
2023-03-02T11:46:00.917Z,12.90
2023-03-02T11:48:32.515Z,13.10
2023-03-02T11:51:04.173Z,12.05
2023-03-02T11:53:42.406Z,14.23
2023-03-02T11:56:11.066Z,12.93
2023-03-02T11:58:40.259Z,13.00
2023-03-02T12:01:11.313Z,14.65
2023-03-02T12:03:42.557Z,15.48
2023-03-02T12:06:28.650Z,14.18
2023-03-02T12:11:39.739Z,13.57
2023-03-02T12:14:28.924Z,13.30
2023-03-02T12:17:08.375Z,17.10
2023-03-02T12:19:45.202Z,10.88
2023-03-02T12:22:18.402Z,14.18
2023-03-02T12:24:48.206Z,11.05
2023-03-02T12:27:28.126Z,10.52
2023-03-02T12:30:11.008Z,13.30
2023-03-02T12:32:39.223Z,14.15
2023-03-02T12:35:13.596Z,13.40
2023-03-02T12:37:48.059Z,10.85
2023-03-02T12:40:34.466Z,14.32
2023-03-02T12:43:26.640Z,11.52
2023-03-02T12:46:30.241Z,13.27
2023-03-02T12:49:03.991Z,12.60
2023-03-02T12:51:44.362Z,14.32
2023-03-02T12:54:14.943Z,16.85
2023-03-02T12:56:44.856Z,14.93
2023-03-02T12:59:22.260Z,15.45
2023-03-02T13:01:50.352Z,10.57
2023-03-02T13:04:23.615Z,10.45
2023-03-02T13:06:54.368Z,13.57
2023-03-02T13:09:23.773Z,15.07
2023-03-02T13:11:55.116Z,11.45
2023-03-02T13:14:28.210Z,16.23
2023-03-02T13:16:58.845Z,10.15
2023-03-02T13:19:28.296Z,14.02
2023-03-02T13:21:56.550Z,12.50
2023-03-02T13:24:32.928Z,19.45
2023-03-02T13:27:07.011Z,12.07
2023-03-02T13:29:35.510Z,13.13
2023-03-02T13:32:18.294Z,11.10
2023-03-02T13:34:51.594Z,11.57
2023-03-02T13:37:34.980Z,9.50
2023-03-02T13:40:05.823Z,13.07
2023-03-02T13:42:38.605Z,7.88
2023-03-02T13:45:24.308Z,13.07
2023-03-02T13:47:52.489Z,10.27
2023-03-02T13:50:25.793Z,9.15
2023-03-02T13:52:56.376Z,8.50
2023-03-02T13:55:24.918Z,8.18
2023-03-02T13:57:55.250Z,8.88
2023-03-02T14:00:27.708Z,10.05
2023-03-02T14:02:55.856Z,8.55
2023-03-02T14:05:27.115Z,10.15
2023-03-02T14:07:55.256Z,9.25
2023-03-02T14:10:23.252Z,8.07
2023-03-02T14:12:57.456Z,8.27
2023-03-02T14:15:26.417Z,7.50
2023-03-02T14:17:54.500Z,12.65
2023-03-02T14:20:22.537Z,11.98
2023-03-02T14:22:50.734Z,10.70
2023-03-02T14:25:19.490Z,8.40
2023-03-02T14:27:47.977Z,8.63
2023-03-02T14:30:19.971Z,9.55
2023-03-02T14:32:48.438Z,9.25
2023-03-02T14:35:17.504Z,6.82
2023-03-02T14:37:48.560Z,11.20
2023-03-02T14:40:19.320Z,9.98
2023-03-02T14:42:48.466Z,9.20
2023-03-02T14:45:18.348Z,7.00
2023-03-02T14:47:46.384Z,9.63
2023-03-02T14:50:14.591Z,9.73
2023-03-02T14:52:44.999Z,43.75
2023-03-02T14:55:18.329Z,8.40
2023-03-02T14:57:46.566Z,8.95
2023-03-02T15:00:17.654Z,9.88
2023-03-02T15:02:45.747Z,10.40
2023-03-02T15:05:13.829Z,7.45
2023-03-02T15:07:41.838Z,12.68
2023-03-02T15:10:15.174Z,13.38
2023-03-02T15:12:43.198Z,10.20
2023-03-02T15:15:12.598Z,8.02
2023-03-02T15:17:42.789Z,8.70
2023-03-02T15:20:15.942Z,9.57
2023-03-02T15:22:44.257Z,7.68
2023-03-02T15:25:12.315Z,8.98
2023-03-02T15:27:41.477Z,11.65
2023-03-02T15:30:12.288Z,7.57
2023-03-02T15:32:41.840Z,9.80
2023-03-02T15:35:12.397Z,12.52
2023-03-02T15:37:40.442Z,8.77
2023-03-02T15:40:09.780Z,9.52
2023-03-02T15:42:37.910Z,9.68
2023-03-02T15:45:06.836Z,9.30
2023-03-02T15:47:34.745Z,10.65
2023-03-02T15:50:04.100Z,7.78
2023-03-02T15:52:32.101Z,8.52
2023-03-02T15:55:00.034Z,10.20
2023-03-02T15:57:28.059Z,12.95
2023-03-02T15:59:55.973Z,8.70
2023-03-02T16:02:24.068Z,11.02
2023-03-02T16:04:52.207Z,8.10
2023-03-02T16:07:21.993Z,8.80
2023-03-02T16:09:49.987Z,12.30
2023-03-02T16:12:20.281Z,7.43
2023-03-02T16:14:48.275Z,10.38
2023-03-02T16:17:17.767Z,13.38
2023-03-02T16:19:45.981Z,9.63
2023-03-02T16:22:13.937Z,7.00
2023-03-02T16:24:43.442Z,9.98
2023-03-02T16:27:11.496Z,17.45
2023-03-02T16:29:39.512Z,12.02
2023-03-02T16:32:08.907Z,7.13
2023-03-02T16:34:37.147Z,7.57
2023-03-02T16:37:05.201Z,9.15
2023-03-02T16:39:33.520Z,9.60
2023-03-02T16:42:02.846Z,9.70
2023-03-02T16:44:30.918Z,14.95
2023-03-02T16:46:58.973Z,10.52
2023-03-02T16:49:26.999Z,12.63
2023-03-02T16:51:58.805Z,14.05
2023-03-02T16:54:26.874Z,9.30
2023-03-02T16:56:54.904Z,10.70
2023-03-02T16:59:24.354Z,9.25
2023-03-02T17:01:52.426Z,9.23
2023-03-02T17:04:21.966Z,11.32
2023-03-02T17:07:05.164Z,14.82
2023-03-02T17:09:35.848Z,11.02
2023-03-02T17:12:04.262Z,11.90
2023-03-02T17:14:33.688Z,12.60
2023-03-02T17:17:04.675Z,13.20
2023-03-02T17:19:32.735Z,15.18
2023-03-02T17:22:01.936Z,13.95
2023-03-02T17:24:30.293Z,15.75
2023-03-02T17:26:58.466Z,14.18
2023-03-02T17:29:26.484Z,18.33
2023-03-02T17:31:56.302Z,18.80
2023-03-02T17:34:28.661Z,21.20
2023-03-02T17:36:56.719Z,20.88
2023-03-02T17:39:24.994Z,22.90
2023-03-02T17:41:53.009Z,21.00
2023-03-02T17:44:21.454Z,25.67
2023-03-02T17:46:49.512Z,25.33
2023-03-02T17:49:18.897Z,22.25
2023-03-02T17:51:46.926Z,24.08
2023-03-02T17:54:14.989Z,19.33
2023-03-02T17:56:42.925Z,20.48
2023-03-02T17:59:11.684Z,22.65
2023-03-02T18:01:39.637Z,24.80
2023-03-02T18:04:08.048Z,20.48
2023-03-02T18:06:37.822Z,20.75
2023-03-02T18:09:05.942Z,22.80
2023-03-02T18:11:34.078Z,25.50
2023-03-02T18:14:02.165Z,22.77
2023-03-02T18:16:30.928Z,24.95
2023-03-02T18:18:58.970Z,23.33
2023-03-02T18:21:27.305Z,26.25
2023-03-02T18:23:57.007Z,22.92
2023-03-02T18:26:25.085Z,24.42
2023-03-02T18:28:53.136Z,25.70
2023-03-02T18:31:22.114Z,26.52
2023-03-02T18:33:50.537Z,26.55
2023-03-02T18:36:19.330Z,29.27
2023-03-02T18:38:47.686Z,28.00
2023-03-02T18:41:17.025Z,28.00
2023-03-02T18:43:45.131Z,27.98
2023-03-02T18:46:21.526Z,25.60
2023-03-02T18:48:51.039Z,32.33
2023-03-02T18:51:19.690Z,29.75
2023-03-02T18:53:48.200Z,30.02
2023-03-02T18:56:18.001Z,29.75
2023-03-02T18:58:46.502Z,28.33
2023-03-02T19:01:14.986Z,28.00
2023-03-02T19:03:45.808Z,30.75
2023-03-02T19:06:15.264Z,32.00
2023-03-02T19:08:43.291Z,30.17
2023-03-02T19:11:11.601Z,38.70
2023-03-02T19:13:41.064Z,30.40
2023-03-02T19:16:09.680Z,29.90
2023-03-02T19:18:37.992Z,33.72
2023-03-02T19:21:06.531Z,31.73
2023-03-02T19:23:34.926Z,36.38
2023-03-02T19:26:04.744Z,34.00
2023-03-02T19:28:34.053Z,33.20
2023-03-02T19:31:06.451Z,31.90
2023-03-02T19:33:34.703Z,34.92
2023-03-02T19:36:02.719Z,37.33
2023-03-02T19:38:31.450Z,35.78
2023-03-02T19:41:01.972Z,36.10
2023-03-02T19:43:30.269Z,35.40
2023-03-02T19:45:58.332Z,32.90
2023-03-02T19:48:29.711Z,35.50
2023-03-02T19:50:58.109Z,35.00
2023-03-02T19:53:26.416Z,42.33
2023-03-02T19:55:54.482Z,35.88
2023-03-02T19:58:23.433Z,34.88
2023-03-02T20:00:51.471Z,37.60
2023-03-02T20:03:19.432Z,35.65
2023-03-02T20:05:48.782Z,38.83
2023-03-02T20:08:17.233Z,35.40
2023-03-02T20:10:49.330Z,33.80
2023-03-02T20:13:18.032Z,39.92
2023-03-02T20:15:47.866Z,32.15
2023-03-02T20:18:18.668Z,38.45
2023-03-02T20:20:48.473Z,35.65
2023-03-02T20:23:17.160Z,37.58
2023-03-02T20:25:47.941Z,36.75
2023-03-02T20:28:17.829Z,37.85
2023-03-02T20:30:49.548Z,36.30
2023-03-02T20:33:18.258Z,36.25
2023-03-02T20:35:49.306Z,36.42
2023-03-02T20:38:20.519Z,39.55
2023-03-02T20:40:48.851Z,38.60
2023-03-02T20:43:17.512Z,38.30
2023-03-02T20:45:46.098Z,37.63
2023-03-02T20:48:14.234Z,36.58
2023-03-02T20:50:43.407Z,36.83
2023-03-02T20:53:13.690Z,39.65
2023-03-02T20:55:43.216Z,40.88
2023-03-02T20:58:12.182Z,40.10
2023-03-02T21:00:41.207Z,41.17
2023-03-02T21:03:10.089Z,41.47
2023-03-02T21:05:41.075Z,43.67
2023-03-02T21:08:11.126Z,43.63
2023-03-02T21:10:40.575Z,39.75
2023-03-02T21:13:09.407Z,47.60
2023-03-02T21:15:37.693Z,44.15
2023-03-02T21:18:06.057Z,45.10
2023-03-02T21:20:36.762Z,44.55
2023-03-02T21:23:05.211Z,46.17
2023-03-02T21:25:33.401Z,45.63
2023-03-02T21:28:02.799Z,42.53
2023-03-02T21:30:33.941Z,39.97
2023-03-02T21:33:02.529Z,43.58
2023-03-02T21:35:31.261Z,43.85
2023-03-02T21:38:04.141Z,46.22
2023-03-02T21:40:34.325Z,48.83
2023-03-02T21:43:05.400Z,48.60
2023-03-02T21:45:34.126Z,51.25
2023-03-02T21:48:02.428Z,51.65
2023-03-02T21:50:34.338Z,53.80
2023-03-02T21:53:02.653Z,53.60
2023-03-02T21:55:31.812Z,53.72
2023-03-02T21:58:00.530Z,52.25
2023-03-02T22:00:32.531Z,53.20
2023-03-02T22:03:01.158Z,53.08
2023-03-02T22:05:29.460Z,64.82
2023-03-02T22:07:57.909Z,56.75
2023-03-02T22:10:32.225Z,56.97
2023-03-02T22:13:15.588Z,50.60
2023-03-02T22:15:45.380Z,49.65
2023-03-02T22:18:15.183Z,55.90
2023-03-02T22:20:46.043Z,57.13
2023-03-02T22:23:16.028Z,52.90
2023-03-02T22:25:44.828Z,53.50
2023-03-02T22:28:18.796Z,54.47
2023-03-02T22:30:48.623Z,54.88
2023-03-02T22:33:20.501Z,56.97
2023-03-02T22:35:48.782Z,51.97
2023-03-02T22:38:24.823Z,52.95
2023-03-02T22:40:53.364Z,54.47
2023-03-02T22:43:25.760Z,51.22
2023-03-02T22:45:59.351Z,59.33
2023-03-02T22:48:30.262Z,55.97
2023-03-02T22:50:58.215Z,50.53
2023-03-02T22:53:29.376Z,53.60
2023-03-02T22:55:59.874Z,56.30
2023-03-02T22:58:45.718Z,54.72
2023-03-02T23:01:26.005Z,56.22
2023-03-02T23:03:56.453Z,56.33
2023-03-02T23:06:27.168Z,59.38
2023-03-02T23:08:57.513Z,59.40
2023-03-02T23:11:26.291Z,57.63
2023-03-02T23:13:54.918Z,57.15
2023-03-02T23:16:27.009Z,60.30
2023-03-02T23:18:56.821Z,61.08
2023-03-02T23:21:28.458Z,59.78
2023-03-02T23:23:56.879Z,60.50
2023-03-02T23:26:24.893Z,64.65
2023-03-02T23:28:52.961Z,57.75
2023-03-02T23:31:21.119Z,59.30
2023-03-02T23:33:50.530Z,58.85
2023-03-02T23:36:20.990Z,55.97
2023-03-02T23:38:49.602Z,58.72
2023-03-02T23:41:18.254Z,60.80
2023-03-02T23:43:46.551Z,62.95
2023-03-02T23:46:14.698Z,61.15
2023-03-02T23:48:43.054Z,60.22
2023-03-02T23:51:12.445Z,59.72
2023-03-02T23:53:40.474Z,61.20
2023-03-02T23:56:09.058Z,60.65
2023-03-02T23:58:36.944Z,65.55
